Weather observations for the past three days for
Virginia Tech Airport
Imperial (Metric)
Date Time (edt) Wind (mph) Vis. (mi.) Weather Sky Cond. Temperature (ºF) Relative Humidity Wind Chill (°F) Heat Index (°F) Pressure Precipitation (in)
Air Dwpt 6 hour altimeter (in) sea level (mb) 1 hr 3 hr 6 hr
Max. Min.
10 15:15 Calm 10.00 Overcast BKN070 OVC085 75 48.9 40% 77 30.04 0.0
10 14:55 NW 6 10.00 Mostly Cloudy BKN070 BKN085 76.1 49.1 39% 78 30.04 0.0
10 14:35 NW 7 10.00 Mostly Cloudy SCT070 BKN085 74.5 48 39% 30.04 0.0
10 14:15 NW 8 10.00 Partly Cloudy SCT070 75 47.5 38% 77 30.04 0.0
10 13:55 NW 10 10.00 Mostly Cloudy BKN070 75.6 48 76.3 51.6 38% 78 30.05 0.0
10 13:35 W 7 10.00 Mostly Cloudy BKN060 75.4 49.6 40% 78 30.05 0.0
10 13:15 NW 5 10.00 Mostly Cloudy BKN060 73.6 49.1 42% 30.06 0.0
10 12:55 NW 5 10.00 Mostly Cloudy BKN060 73.6 49.1 42% 30.06 0.0
10 12:35 W 6 10.00 Partly Cloudy SCT050 73.4 49.6 43% 30.06 0.0
10 12:15 W 7 10.00 Partly Cloudy SCT050 72.3 50.2 46% 30.06 0.0
10 11:55 W 5 10.00 Fair CLR 71.6 51.6 49% 30.07 0.0
10 11:35 NW 7 10.00 Fair CLR 70.3 51.1 51% 30.07 0.0
10 11:15 W 7 10.00 Fair CLR 69.8 52 53% 30.07 0.0
10 10:55 W 3 10.00 Fair CLR 68.4 51.3 55% 30.07 0.0
10 10:35 W 6 10.00 Fair CLR 67.1 52 58% 30.07 0.0
10 10:15 Calm 10.00 Fair CLR 65.3 52 62% 30.07 0.0
10 09:55 Calm 10.00 Fair CLR 63 51.4 66% 30.08 0.0
10 09:35 Calm 10.00 Fair CLR 59.9 50.7 72% 30.08 0.0
10 09:15 Calm 10.00 Fair CLR 58.6 51.6 78% 30.08 0.0
10 08:55 Calm 10.00 Fair CLR 57 50.9 80% 30.07 0.0
10 08:35 Calm 10.00 Fair CLR 54.3 50.7 88% 30.06 0.0
10 08:15 Calm 10.00 Fair CLR 53.2 50 89% 30.06 0.0
10 07:55 Calm 10.00 Fair CLR 51.4 49.5 51.4 46 93% 30.06 0.0
10 07:35 Calm 10.00 Fair CLR 49.1 48.2 97% 30.05 0.0
10 07:15 Calm 10.00 Fair CLR 47.3 46.9 99% 30.04 0.0
10 06:55 Calm 10.00 Fair CLR 46.8 46.6 99% 30.02 0.0
10 06:35 Calm 7.00 Fair CLR 46.6 46.4 99% 30.02 0.0
10 06:15 Calm 10.00 Fair CLR 47.1 46.9 99% 30.01 0.0
10 05:55 Calm 10.00 Fair CLR 47.3 46.8 98% 30.01 0.0
10 05:35 Calm 10.00 Fair CLR 47.3 46.6 97% 30 0.0
10 05:15 Calm 10.00 Fair CLR 46.8 46.4 99% 30 0.0
10 04:55 Calm 10.00 Fair CLR 46.8 46.4 99% 29.99 0.0
10 04:35 Calm 10.00 Fair CLR 47.5 46.4 96% 29.99 0.0
10 04:15 Calm 10.00 Fair CLR 47.3 46.2 96% 29.99 0.0
10 03:55 Calm 10.00 Fair CLR 47.3 46.6 97% 29.98 0.0
10 03:35 Calm 10.00 Fair CLR 48.9 47.1 94% 29.98 0.0
10 03:15 Calm 10.00 Fair CLR 48.9 46.9 93% 29.97 0.0
10 02:55 Calm 10.00 Fair CLR 49.1 47.3 94% 29.97 0.0
10 02:35 Calm 10.00 Fair CLR 50.2 46.9 89% 29.98 0.0
10 02:15 Calm 10.00 Fair CLR 49.6 47.1 91% 29.98 0.0
10 01:55 Calm 10.00 Fair CLR 49.5 47.1 65.7 49.5 92% 29.97 0.0
10 01:35 Calm 10.00 Fair CLR 50.5 47.3 89% 29.98 0.0
10 01:15 Calm 10.00 Fair CLR 51.1 47.1 86% 29.98 0.0
10 00:55 Calm 10.00 Fair CLR 51.8 47.3 85% 29.98 0.0
10 00:35 Calm 10.00 Fair CLR 52.2 47.5 84% 29.98 0.0
10 00:15 Calm 10.00 Fair CLR 52.3 47.5 84% 29.98 0.0
09 23:55 Calm 10.00 Fair CLR 52.9 47.8 83% 29.97 0.0
09 23:35 Calm 10.00 Fair CLR 53.8 47.5 79% 29.97 0.0
09 23:15 Calm 10.00 Fair CLR 54.1 47.5 78% 29.97 0.0
09 22:55 Calm 10.00 Fair CLR 55.8 47.5 74% 29.96 0.0
09 22:35 Calm 10.00 Fair CLR 55.8 47.8 75% 29.96 0.0
09 22:15 Calm 10.00 Fair CLR 56.1 47.5 73% 29.96 0.0
09 21:55 Calm 10.00 Fair CLR 56.3 47.8 73% 29.94 0.0
09 21:35 Calm 10.00 Fair CLR 58.1 47.8 69% 29.93 0.0
09 21:15 Calm 10.00 Fair CLR 59 47.3 65% 29.92 0.0
09 20:55 Calm 10.00 Fair CLR 60.6 46.9 61% 29.92 0.0
09 20:35 Calm 10.00 Fair CLR 61.7 46.8 58% 29.91 0.0
09 20:15 Calm 10.00 Fair CLR 64.6 46.4 52% 29.91 0.0
09 19:55 NW 5 10.00 Fair CLR 65.8 46.6 72.1 65.8 50% 29.9 0.0
09 19:35 NW 7 10.00 Fair CLR 66.6 46.4 48% 29.89 0.0
09 19:15 NW 6 G 9 10.00 Partly Cloudy SCT060 67.6 46 46% 29.89 0.0
09 18:55 NW 9 10.00 Partly Cloudy SCT070 69.1 46.6 45% 29.89 0.0
09 18:35 NW 5 10.00 Partly Cloudy SCT070 70 46.9 44% 29.89 0.0
09 18:15 W 3 10.00 Partly Cloudy SCT075 69.1 45.9 44% 29.89 0.0
09 17:55 NW 9 10.00 Mostly Cloudy BKN075 68.5 45.7 44% 29.88 0.0
09 17:35 NW 9 10.00 Overcast SCT065 OVC075 71.2 46.4 41% 29.88 0.0
09 17:15 W 6 10.00 Overcast SCT065 OVC075 69.8 45.9 42% 29.87 0.0
09 16:55 SW 6 10.00 Overcast SCT065 OVC075 69.1 46 44% 29.87 0.0
09 16:35 W 6 10.00 Overcast BKN065 OVC075 70 45.9 42% 29.87 0.0
09 16:15 W 5 10.00 Overcast BKN065 OVC080 69.8 45.7 42% 29.87 0.0
09 15:55 SW 6 10.00 Mostly Cloudy BKN065 71.2 47.5 43% 29.87 0.0
09 15:35 SW 5 G 16 10.00 Partly Cloudy SCT065 SCT090 71.4 46.4 41% 29.87 0.0
09 15:15 NW 9 10.00 Overcast SCT065 SCT075 OVC090 70.7 46.2 42% 29.86 0.0
09 14:55 W 7 10.00 Mostly Cloudy BKN065 BKN075 BKN100 69.3 45 42% 29.87 0.0
09 14:35 SW 6 G 16 10.00 Partly Cloudy SCT065 SCT110 71.2 45.9 40% 29.87 0.0
09 14:15 SW 7 G 17 10.00 Mostly Cloudy SCT055 BKN110 69.6 45.7 42% 29.88 0.0
09 13:55 W 7 10.00 Mostly Cloudy SCT065 BKN075 BKN110 69.1 47.8 69.6 48.7 47% 29.88 0.0
09 13:35 W 5 10.00 Partly Cloudy SCT050 69.1 46.8 45% 29.89 0.0
09 13:15 W 6 10.00 Mostly Cloudy BKN050 BKN070 68 48.4 50% 29.89 0.0
09 12:55 SW 7 10.00 Mostly Cloudy SCT046 SCT055 BKN065 66.6 46.9 49% 29.9 0.0
09 12:35 W 3 10.00 Mostly Cloudy SCT042 BKN049 BKN065 66.2 48.6 53% 29.91 0.0
09 12:15 Calm 10.00 Mostly Cloudy BKN038 BKN046 65.5 50 58% 29.91 0.0
09 11:55 Calm 10.00 Mostly Cloudy BKN034 BKN043 63.9 50.5 62% 29.9 0.0
09 11:35 Calm 10.00 Mostly Cloudy BKN034 BKN040 63 50 63% 29.9 0.0
09 11:15 SW 3 10.00 Partly Cloudy SCT032 63.3 49.8 62% 29.92 0.0
09 10:55 NW 3 10.00 Partly Cloudy SCT029 63.1 51.1 65% 29.9 0.0
09 10:35 S 6 10.00 Fair CLR 61.7 50 66% 29.92 0.0
09 10:15 SW 3 10.00 Fair CLR 59.9 49.3 68% 29.92 0.0
09 09:55 Calm 10.00 Fair CLR 58.8 49.6 72% 29.92 0.0
09 09:35 S 3 10.00 Fair CLR 57.4 48.9 74% 29.92 0.0
09 09:15 Calm 10.00 Fair CLR 55.6 47.7 75% 29.93 0.0
09 08:55 Calm 10.00 Fair CLR 53.4 46.6 78% 29.94 0.0
09 08:35 Calm 10.00 Fair CLR 52 46 80% 29.95 0.0
09 08:15 Calm 10.00 Fair CLR 50.5 46.4 86% 29.95 0.0
09 07:55 Calm 10.00 Fair CLR 48.6 45.7 52.7 45.5 90% 29.95 0.0
09 07:35 Calm 10.00 Fair CLR 46.9 44.4 91% 29.94 0.0
09 07:15 Calm 10.00 Fair CLR 46.2 43.7 91% 29.94 0.0
09 06:55 Calm 10.00 Fair CLR 45.9 43.5 92% 29.93 0.0
09 06:35 Calm 10.00 Fair CLR 45.9 43.7 92% 29.93 0.0
09 06:15 Calm 10.00 Fair CLR 45.7 43.5 92% 29.93 0.0
09 05:55 Calm 10.00 Fair CLR 46.2 43 89% 29.93 0.0
09 05:35 Calm 10.00 Fair CLR 45.7 42.8 90% 29.93 0.0
09 05:15 Calm 10.00 Fair CLR 46.6 43 87% 29.93 0.0
09 04:55 Calm 10.00 Fair CLR 47.5 42.8 84% 29.93 0.0
09 04:35 Calm 10.00 Fair CLR 47.8 42.6 82% 29.93 0.0
09 04:15 Calm 10.00 Fair CLR 47.8 42.8 83% 29.93 0.0
09 03:55 Calm 10.00 Fair CLR 48.6 41.5 77% 29.94 0.0
09 03:35 Calm 10.00 Fair CLR 48 41.2 77% 29.94 0.0
09 03:15 Calm 10.00 Fair CLR 48.9 41 74% 29.94 0.0
09 02:55 Calm 10.00 Fair CLR 49.6 40.8 72% 29.95 0.0
09 02:35 Calm 10.00 Fair CLR 50.9 40.8 69% 29.96 0.0
09 02:15 Calm 10.00 Fair CLR 52.3 40.3 64% 29.97 0.0
09 01:55 Calm 10.00 Fair CLR 52.7 40.1 62.1 51.3 62% 29.97 0.0
09 01:35 Calm 10.00 Fair CLR 53.6 39.6 59% 29.99 0.0
09 01:15 Calm 10.00 Fair CLR 53.2 38.8 58% 29.98 0.0
09 00:55 SW 5 10.00 Fair CLR 53.8 38.3 56% 29.98 0.0
09 00:35 SW 3 10.00 Fair CLR 53.6 37.9 56% 29.98 0.0
09 00:15 Calm 10.00 Fair CLR 52.5 37.4 57% 29.98 0.0
08 23:55 Calm 10.00 Fair CLR 51.8 36.7 56% 29.98 0.0
08 23:35 Calm 10.00 Fair CLR 51.8 37.4 58% 29.99 0.0
08 23:15 Calm 10.00 Fair CLR 51.8 36.7 56% 29.99 0.0
08 22:55 Calm 10.00 Fair CLR 53.4 36.1 52% 30 0.0
08 22:35 Calm 10.00 Fair CLR 54.3 35.4 49% 30 0.0
08 22:15 Calm 10.00 Fair CLR 55.4 34.9 46% 29.99 0.0
08 21:55 Calm 10.00 Fair CLR 56.5 34.9 44% 29.99 0.0
08 21:35 Calm 10.00 Fair CLR 57.4 34.7 43% 29.99 0.0
08 21:15 S 3 10.00 Fair CLR 58.1 34.5 41% 29.98 0.0
08 20:55 S 3 10.00 Fair CLR 59 34 39% 29.97 0.0
08 20:35 Calm 10.00 Fair CLR 60.1 34 38% 29.97 0.0
08 20:15 S 5 10.00 Fair CLR 61.2 34.2 36% 29.97 0.0
08 19:55 SW 3 10.00 Fair CLR 62.1 34.7 67.5 62.1 36% 29.97 0.0
08 19:35 SW 7 10.00 Fair CLR 63.1 35.1 35% 29.97 0.0
08 19:15 S 5 10.00 Fair CLR 64.4 35.8 35% 29.96 0.0
08 18:55 SW 3 10.00 Fair CLR 65.3 35.8 34% 29.96 0.0
08 18:35 S 6 10.00 Fair CLR 66.2 36.3 33% 29.94 0.0
08 18:15 S 8 10.00 Partly Cloudy SCT085 65.1 34.7 32% 29.94 0.0
08 17:55 SW 3 10.00 Fair CLR 64.9 33.1 31% 29.94 0.0
08 17:35 Calm 10.00 Partly Cloudy SCT080 65.8 32.7 29% 29.95 0.0
08 17:15 Calm 10.00 Partly Cloudy SCT080 66.7 33.8 30% 29.96 0.0
08 16:55 Calm 10.00 Partly Cloudy SCT080 64.8 32 29% 29.97 0.0
08 16:35 W 3 10.00 Partly Cloudy SCT080 67.5 36 31% 29.98 0.0
08 16:15 W 3 10.00 Fair CLR 66.6 36 32% 29.99 0.0
08 15:55 SE 3 10.00 Fair CLR 65.1 34.2 32% 29.99 0.0
08 15:35 W 7 10.00 Fair CLR 64.9 35.8 34% 29.99 0.0
08 15:15 S 10 10.00 Fair CLR 64.6 35.2 34% 30 0.0
08 14:55 S 5 10.00 Fair CLR 65.5 34.5 32% 30.01 0.0
08 14:35 W 3 10.00 Fair CLR 64.4 32.4 30% 30.01 0.0
08 14:15 Calm 10.00 Fair CLR 64.2 33.8 32% 30.02 0.0
08 13:55 SW 3 10.00 Fair CLR 63.1 32.5 63.9 44.1 32% 30.03 0.0
08 13:35 Calm 10.00 Fair CLR 62.6 33.3 33% 30.04 0.0
08 13:15 Calm 10.00 Fair CLR 62.4 33.6 34% 30.05 0.0
08 12:55 S 3 10.00 Fair CLR 60.8 33.1 35% 30.06 0.0
08 12:35 NW 5 10.00 Fair CLR 61.5 33.3 35% 30.07 0.0
08 12:15 Calm 10.00 Fair CLR 60.4 33.1 36% 30.08 0.0
08 11:55 W 5 10.00 Fair CLR 59.5 34.5 39% 30.08 0.0
08 11:35 Calm 10.00 Fair CLR 58.3 34.2 40% 30.08 0.0
08 11:15 SW 3 10.00 Fair CLR 57.7 35.4 43% 30.08 0.0
08 10:55 Calm 10.00 Fair CLR 57 36.3 46% 30.08 0.0
08 10:35 Calm 10.00 Fair CLR 55.8 35.4 47% 30.08 0.0
08 10:15 Calm 10.00 Fair CLR 56.3 37 49% 30.08 0.0
08 09:55 Calm 10.00 Fair CLR 54.5 33.4 45% 30.08 0.0
08 09:35 NW 3 10.00 Fair CLR 53.8 33.3 46% 30.08 0.0
08 09:15 Calm 10.00 Fair CLR 51.1 35.2 55% 30.08 0.0
08 08:55 Calm 10.00 Fair CLR 49.8 36.7 61% 30.08 0.0
08 08:35 Calm 10.00 Fair CLR 48.2 37.2 66% 30.08 0.0
08 08:15 Calm 10.00 Fair CLR 46.4 37.2 70% 30.08 0.0
08 07:55 Calm 10.00 Fair CLR 43.9 37.2 46.8 36.1 77% 30.07 0.0
08 07:35 Calm 10.00 Fair CLR 41.5 36.9 84% 30.06 0.0
08 07:15 Calm 10.00 Fair CLR 38.5 35.6 89% 30.06 0.0
08 06:55 Calm 10.00 Fair CLR 37.2 35.8 95% 30.06 0.0
08 06:35 Calm 10.00 Fair CLR 36.9 35.2 94% 30.05 0.0
08 06:15 Calm 10.00 Fair CLR 37.8 35.4 91% 30.05 0.0
08 05:55 Calm 10.00 Fair CLR 38.5 35.8 90% 30.04 0.0
08 05:35 Calm 10.00 Fair CLR 38.5 36.1 91% 30.04 0.0
08 05:15 Calm 10.00 Fair CLR 39 36 89% 30.04 0.0
08 04:55 Calm 10.00 Fair CLR 39 35.8 88% 30.04 0.0
08 04:35 Calm 10.00 Fair CLR 39.2 36.3 89% 30.04 0.0
08 04:15 Calm 10.00 Fair CLR 40.6 36.1 84% 30.03 0.0
08 03:55 Calm 10.00 Fair CLR 41.9 34.5 75% 30.03 0.0
08 03:35 Calm 10.00 Fair CLR 42.6 35.6 76% 30.02 0.0
08 03:15 Calm 10.00 Fair CLR 44.6 34.9 69% 30.02 0.0
08 02:55 W 5 10.00 Fair CLR 46 34.7 65% 44 30.02 0.0
08 02:35 Calm 10.00 Fair CLR 45.3 35.6 69% 30.02 0.0
08 02:15 Calm 10.00 Fair CLR 46 35.8 68% 30.02 0.0
08 01:55 Calm 10.00 Fair CLR 46.4 36 55.6 45.3 67% 30.02 0.0
08 01:35 Calm 10.00 Fair CLR 45.7 37 72% 30.02 0.0
08 01:15 Calm 10.00 Fair CLR 46.8 37 69% 30.01 0.0
08 00:55 SW 3 10.00 Fair CLR 46 38.5 75% 30 0.0
08 00:35 Calm 10.00 Fair CLR 46.4 38.3 74% 30 0.0
08 00:15 Calm 10.00 Fair CLR 47.3 39 73% 29.99 0.0
07 23:55 Calm 10.00 Fair CLR 47.3 39.4 74% 29.99 0.0
07 23:35 Calm 10.00 Fair CLR 48 39 71% 29.99 0.0
07 23:15 NW 5 10.00 Fair CLR 49.5 38.7 67% 48 29.98 0.0
07 22:55 NW 3 10.00 Fair CLR 49.6 39.2 67% 29.98 0.0
07 22:35 NW 3 10.00 Fair CLR 50 39.7 68% 29.97 0.0
07 22:15 NW 3 10.00 Fair CLR 49.5 40.6 72% 29.96 0.0
07 21:55 Calm 10.00 Fair CLR 49.3 41.4 74% 29.95 0.0
07 21:35 Calm 10.00 Fair CLR 50 41.7 73% 29.94 0.0
07 21:15 Calm 10.00 Fair CLR 52.2 41 66% 29.93 0.0
07 20:55 W 3 10.00 Fair CLR 53.2 41 63% 29.93 0.0
07 20:35 NW 3 10.00 Fair CLR 54 40.6 61% 29.93 0.0
07 20:15 NW 5 10.00 Fair CLR 54.5 40.8 60% 29.92 0.0
07 19:55 NW 7 10.00 Fair CLR 55.6 40.8 60.8 53.1 58% 29.92 0.0
07 19:35 NW 7 10.00 Fair CLR 56.3 40.6 56% 29.91 0.0
07 19:15 NW 7 G 16 10.00 Fair CLR 57.4 41 55% 29.9 0.0
07 18:55 W 7 G 17 10.00 Partly Cloudy SCT044 58.1 41.5 54% 29.9 0.0
07 18:35 NW 6 10.00 Mostly Cloudy BKN044 BKN050 58.3 42.1 55% 29.9 0.0
07 18:15 NW 8 G 17 10.00 Mostly Cloudy BKN046 57.6 41.7 56% 29.89 0.0
07 17:55 NW 6 10.00 Mostly Cloudy BKN043 BKN050 58.8 43 56% 29.89 0.0
07 17:35 NW 7 G 16 10.00 Mostly Cloudy BKN041 BKN080 59.5 44.1 57% 29.89 0.0
07 16:35 NW 12 G 17 10.00 Partly Cloudy SCT037 57.7 43.7 60% 29.87 0.0
07 16:15 NW 8 G 16 10.00 Partly Cloudy SCT033 SCT050 60.1 46.4 61% 29.87 0.0
07 15:55 W 7 10.00 Mostly Cloudy BKN050 59.2 47.8 66% 29.88 0.0
07 15:35 NW 3 10.00 Overcast SCT026 OVC048 57 47.1 70% 29.89 0.0
Date Time (edt) Wind (mph) Vis. (mi.) Weather Sky Cond. Air Dwpt Max. Min. Relative Humidity Wind Chill (°F) Heat Index (°F) altimeter (in) sea level (mb) 1 hr 3 hr 6 hr
6 hour
Temperature (ºF) Pressure Precipitation (in)